KRKD/RKD METAR and TAF weather

Enter ICAO airport designator
Station Type Date Time Source
KRKD METAR 2021/04/18 01:56 UTC NOAA

KRKD 180156Z AUTO 33003KT 10SM BKN027 OVC048 06/02 A2974 RMK AO2 SLP070 T00560022


Station Type Date Time Source
KRKD Decoded METAR 2021/04/18 01:56 UTC NOAA

Rockland, Knox County Regional Airport, ME, United States (KRKD) 44-04N 069-06W
Apr 17, 2021 - 09:56 PM EDT / 2021.04.18 0156 UTC
Wind: from the NNW (330 degrees) at 3 MPH (3 KT):0
Visibility: 10 mile(s):0
Sky conditions: overcast
Temperature: 42.1 F (5.6 C)
Dew Point: 36.0 F (2.2 C)
Relative Humidity: 78%
Pressure (altimeter): 29.74 in. Hg (1007 hPa)
ob: KRKD 180156Z AUTO 33003KT 10SM BKN027 OVC048 06/02 A2974 RMK AO2 SLP070 T00560022
cycle: 2

Station Type Date Time Source
KRKD TAF 2021/04/17 18:40 UTC NOAA

TAF KRKD 171738Z 1718/1818 02011G18KT P6SM OVC012
FM172100 36010KT P6SM OVC012
FM172300 36009KT P6SM OVC010
FM181300 33005KT P6SM BKN023

Example: see airport list